createdAt,value
2023-03-11T00:01:46.661Z,11.50
2023-03-11T00:04:14.542Z,10.60
2023-03-11T00:06:42.363Z,12.20
2023-03-11T00:09:10.331Z,11.50
2023-03-11T00:11:38.074Z,12.90
2023-03-11T00:14:05.836Z,16.30
2023-03-11T00:16:33.644Z,15.80
2023-03-11T00:19:01.427Z,13.00
2023-03-11T00:21:29.258Z,13.00
2023-03-11T00:24:01.030Z,8.50
2023-03-11T00:26:28.743Z,14.10
2023-03-11T00:28:56.555Z,11.00
2023-03-11T00:31:26.491Z,14.30
2023-03-11T00:33:54.976Z,10.80
2023-03-11T00:36:24.389Z,11.30
2023-03-11T00:41:19.862Z,11.30
2023-03-11T00:43:47.724Z,10.70
2023-03-11T00:46:15.486Z,12.00
2023-03-11T00:48:43.211Z,12.00
2023-03-11T00:51:14.732Z,10.10
2023-03-11T00:53:43.967Z,11.50
2023-03-11T00:56:14.239Z,9.70
2023-03-11T00:58:45.645Z,11.50
2023-03-11T01:01:17.398Z,13.30
2023-03-11T01:03:45.289Z,10.70
2023-03-11T01:06:13.721Z,10.30
2023-03-11T01:08:41.665Z,9.60
2023-03-11T01:11:10.052Z,11.40
2023-03-11T01:13:40.230Z,10.10
2023-03-11T01:16:09.346Z,9.30
2023-03-11T01:18:37.209Z,13.00
2023-03-11T01:21:05.312Z,9.20
2023-03-11T01:23:33.539Z,9.10
2023-03-11T01:26:01.312Z,14.00
2023-03-11T01:28:29.067Z,7.80
2023-03-11T01:31:00.216Z,8.80
2023-03-11T01:33:29.213Z,9.10
2023-03-11T01:35:57.071Z,7.30
2023-03-11T01:38:28.603Z,7.90
2023-03-11T01:40:56.612Z,7.30
2023-03-11T01:43:43.222Z,7.50
2023-03-11T01:46:28.086Z,8.20
2023-03-11T01:48:56.516Z,7.70
2023-03-11T01:51:38.526Z,8.10
2023-03-11T01:54:11.794Z,9.70
2023-03-11T01:56:42.011Z,7.30
2023-03-11T01:59:13.654Z,9.70
2023-03-11T02:02:10.191Z,9.40
2023-03-11T02:04:40.442Z,7.80
2023-03-11T02:07:10.114Z,7.00
2023-03-11T02:09:38.767Z,8.90
2023-03-11T02:12:08.898Z,8.20
2023-03-11T02:14:41.975Z,6.20
2023-03-11T02:17:10.079Z,6.50
2023-03-11T02:19:49.839Z,8.40
2023-03-11T02:22:17.562Z,5.00
2023-03-11T02:24:54.209Z,5.90
2023-03-11T02:27:23.825Z,5.80
2023-03-11T02:29:52.136Z,9.20
2023-03-11T02:32:20.685Z,5.50
2023-03-11T02:34:48.538Z,7.40
2023-03-11T02:37:17.414Z,6.50
2023-03-11T02:39:54.845Z,5.50
2023-03-11T02:42:31.451Z,7.00
2023-03-11T02:45:10.947Z,4.10
2023-03-11T02:47:41.061Z,7.60
2023-03-11T02:50:13.773Z,5.70
2023-03-11T02:52:42.090Z,4.40
2023-03-11T02:55:11.941Z,9.00
2023-03-11T02:57:40.697Z,7.70
2023-03-11T03:00:14.554Z,5.90
2023-03-11T03:02:45.616Z,6.90
2023-03-11T03:05:13.991Z,5.80
2023-03-11T03:07:42.121Z,4.50
2023-03-11T03:10:10.779Z,6.00
2023-03-11T03:12:38.551Z,5.60
2023-03-11T03:15:07.017Z,6.60
2023-03-11T03:17:34.860Z,6.70
2023-03-11T03:20:05.880Z,8.40
2023-03-11T03:22:33.735Z,6.00
2023-03-11T03:25:01.509Z,7.00
2023-03-11T03:27:31.420Z,5.50
2023-03-11T03:29:59.367Z,5.10
2023-03-11T03:32:27.429Z,3.80
2023-03-11T03:34:59.068Z,5.10
2023-03-11T03:37:35.881Z,6.30
2023-03-11T03:40:08.828Z,6.30
2023-03-11T03:42:38.152Z,5.50
2023-03-11T03:47:36.454Z,6.70
2023-03-11T03:50:06.775Z,5.00
2023-03-11T03:52:38.857Z,6.10
2023-03-11T03:55:07.115Z,6.40
2023-03-11T03:57:35.015Z,5.00
2023-03-11T04:00:04.630Z,5.30
2023-03-11T04:02:41.856Z,5.60
2023-03-11T04:05:15.258Z,5.70
2023-03-11T04:07:43.818Z,5.40
2023-03-11T04:10:14.177Z,4.90
2023-03-11T04:12:42.239Z,5.20
2023-03-11T04:15:11.134Z,4.90
2023-03-11T04:17:39.636Z,5.60
2023-03-11T04:20:10.343Z,7.00
2023-03-11T04:22:38.212Z,8.40
2023-03-11T04:25:06.792Z,8.10
2023-03-11T04:27:34.764Z,5.90
2023-03-11T04:30:03.517Z,4.60
2023-03-11T04:32:32.008Z,4.50
2023-03-11T04:35:00.208Z,6.50
2023-03-11T04:39:58.355Z,3.80
2023-03-11T04:42:27.245Z,4.20
2023-03-11T04:44:55.599Z,5.40
2023-03-11T04:47:23.932Z,3.60
2023-03-11T04:49:52.277Z,4.80
2023-03-11T04:52:20.092Z,3.80
2023-03-11T04:54:48.335Z,3.60
2023-03-11T04:57:16.366Z,4.30
2023-03-11T04:59:45.018Z,3.10
2023-03-11T05:02:13.130Z,4.10
2023-03-11T05:04:43.573Z,4.50
2023-03-11T05:07:11.344Z,3.40
2023-03-11T05:09:39.314Z,4.40
2023-03-11T05:12:12.221Z,5.10
2023-03-11T05:14:40.766Z,3.20
2023-03-11T05:17:10.538Z,4.50
2023-03-11T05:19:38.384Z,4.00
2023-03-11T05:22:21.236Z,4.80
2023-03-11T05:24:49.781Z,4.10
2023-03-11T05:27:18.140Z,3.30
2023-03-11T05:29:47.467Z,5.90
2023-03-11T05:32:15.681Z,3.70
2023-03-11T05:34:43.834Z,4.60
2023-03-11T05:37:12.232Z,3.50
2023-03-11T05:39:40.145Z,3.50
2023-03-11T05:42:08.578Z,4.40
2023-03-11T05:44:36.498Z,3.60
2023-03-11T05:47:04.467Z,3.90
2023-03-11T05:49:33.019Z,3.50
2023-03-11T05:52:01.266Z,4.40
2023-03-11T05:54:30.351Z,4.30
2023-03-11T05:56:58.270Z,3.60
2023-03-11T05:59:26.740Z,4.70
2023-03-11T06:01:58.600Z,5.30
2023-03-11T06:04:26.794Z,4.80
2023-03-11T06:06:54.964Z,5.50
2023-03-11T06:09:24.071Z,5.40
2023-03-11T06:11:52.184Z,4.40
2023-03-11T06:14:20.185Z,7.20
2023-03-11T06:16:49.771Z,5.20
2023-03-11T06:19:17.819Z,5.40
2023-03-11T06:21:48.919Z,4.40
2023-03-11T06:24:18.025Z,6.50
2023-03-11T06:26:46.839Z,6.00
2023-03-11T06:29:15.316Z,3.70
2023-03-11T06:31:43.296Z,5.10
2023-03-11T06:34:12.290Z,5.50
2023-03-11T06:36:40.277Z,4.00
2023-03-11T06:39:08.088Z,4.80
2023-03-11T06:41:36.442Z,6.40
2023-03-11T06:44:05.097Z,3.70
2023-03-11T06:46:33.765Z,4.30
2023-03-11T06:49:01.577Z,3.90
2023-03-11T06:51:29.799Z,4.00
2023-03-11T06:53:57.828Z,4.80
2023-03-11T06:56:26.142Z,6.50
2023-03-11T06:58:57.395Z,6.90
2023-03-11T07:01:27.258Z,4.80
2023-03-11T07:03:55.637Z,5.30
2023-03-11T07:06:26.424Z,5.50
2023-03-11T07:08:59.250Z,5.20
2023-03-11T07:11:28.800Z,5.10
2023-03-11T07:14:02.049Z,3.60
2023-03-11T07:16:31.941Z,4.90
2023-03-11T07:19:05.361Z,4.50
2023-03-11T07:21:33.157Z,5.70
2023-03-11T07:24:02.755Z,4.60
2023-03-11T07:26:32.392Z,3.70
2023-03-11T07:34:00.049Z,4.20
2023-03-11T07:36:28.896Z,4.30
2023-03-11T07:39:01.131Z,4.80
2023-03-11T07:41:31.364Z,5.70
2023-03-11T07:44:00.871Z,4.70
2023-03-11T07:46:30.278Z,4.60
2023-03-11T07:48:58.312Z,4.80
2023-03-11T07:51:29.544Z,5.40
2023-03-11T07:53:59.371Z,6.10
2023-03-11T07:56:32.227Z,6.20
2023-03-11T07:59:01.599Z,5.30
2023-03-11T08:01:36.881Z,5.00
2023-03-11T08:04:07.024Z,5.40
2023-03-11T08:06:36.971Z,6.80
2023-03-11T08:09:09.248Z,5.50
2023-03-11T08:11:37.678Z,8.20
2023-03-11T08:14:06.282Z,7.80
2023-03-11T08:16:34.104Z,7.00
2023-03-11T08:19:02.252Z,6.00
2023-03-11T08:21:32.438Z,6.80
2023-03-11T08:24:01.777Z,4.00
2023-03-11T08:26:30.831Z,6.70
2023-03-11T08:28:59.785Z,6.40
2023-03-11T08:31:30.626Z,4.50
2023-03-11T08:34:01.774Z,6.50
2023-03-11T08:36:30.218Z,7.80
2023-03-11T08:38:58.731Z,6.70
2023-03-11T08:41:27.608Z,6.20
2023-03-11T08:43:55.903Z,6.60
2023-03-11T08:46:33.294Z,7.90
2023-03-11T08:49:01.711Z,6.50
2023-03-11T08:51:32.362Z,8.20
2023-03-11T08:54:01.218Z,6.60
2023-03-11T08:56:29.788Z,6.80
2023-03-11T08:58:57.713Z,6.10
2023-03-11T09:01:25.710Z,6.70
2023-03-11T09:03:53.771Z,6.40
2023-03-11T09:06:21.800Z,6.40
2023-03-11T09:08:50.010Z,6.20
2023-03-11T09:11:19.086Z,5.10
2023-03-11T09:13:47.058Z,5.20
2023-03-11T09:16:17.730Z,5.90
2023-03-11T09:18:46.183Z,3.30
2023-03-11T09:21:14.452Z,4.00
2023-03-11T09:23:44.509Z,5.00
2023-03-11T09:26:15.855Z,4.40
2023-03-11T09:28:43.843Z,4.30
2023-03-11T09:31:11.985Z,4.50
2023-03-11T09:33:41.469Z,7.50
2023-03-11T09:38:42.260Z,4.60
2023-03-11T09:41:27.318Z,5.50
2023-03-11T09:44:16.451Z,10.00
2023-03-11T09:47:11.392Z,8.40
2023-03-11T09:49:39.117Z,14.10
2023-03-11T09:52:15.462Z,10.10
2023-03-11T09:54:48.261Z,9.50
2023-03-11T09:57:22.030Z,7.20
2023-03-11T09:59:50.528Z,9.00
2023-03-11T10:02:21.327Z,7.10
2023-03-11T10:05:08.496Z,6.30
2023-03-11T10:07:40.576Z,4.70
2023-03-11T10:10:14.553Z,9.90
2023-03-11T10:12:59.314Z,7.00
2023-03-11T10:15:58.708Z,5.90
2023-03-11T10:18:32.231Z,3.40
2023-03-11T10:21:10.034Z,2.60
2023-03-11T10:23:46.409Z,2.80
2023-03-11T10:26:23.185Z,4.00
2023-03-11T10:29:18.887Z,2.80
2023-03-11T10:32:03.077Z,5.10
2023-03-11T10:34:39.660Z,2.90
2023-03-11T10:37:46.276Z,3.90
2023-03-11T10:40:29.750Z,4.10
2023-03-11T10:43:03.084Z,3.00
2023-03-11T10:45:38.384Z,4.60
2023-03-11T10:48:11.716Z,5.80
2023-03-11T10:51:14.899Z,4.30
2023-03-11T10:53:52.529Z,2.50
2023-03-11T10:56:40.684Z,4.90
2023-03-11T10:59:25.490Z,4.60
2023-03-11T11:02:20.117Z,3.40
2023-03-11T11:05:17.728Z,5.50
2023-03-11T11:07:47.670Z,4.50
2023-03-11T11:10:23.623Z,3.40
2023-03-11T11:15:52.461Z,3.60
2023-03-11T11:18:47.137Z,4.40
2023-03-11T11:21:17.524Z,4.80
2023-03-11T11:24:01.240Z,3.70
2023-03-11T11:26:29.043Z,2.90
2023-03-11T11:29:10.419Z,3.00
2023-03-11T11:31:40.966Z,4.10
2023-03-11T11:34:27.034Z,4.40
2023-03-11T11:36:57.189Z,2.60
2023-03-11T11:39:28.887Z,2.60
2023-03-11T11:41:57.529Z,4.30
2023-03-11T11:44:33.516Z,3.40
2023-03-11T11:49:36.835Z,3.20
2023-03-11T11:52:20.765Z,3.30
2023-03-11T11:54:59.002Z,4.00
2023-03-11T11:57:27.819Z,4.40
2023-03-11T11:59:57.428Z,3.80
2023-03-11T12:02:37.923Z,4.00
2023-03-11T12:05:47.374Z,4.90
2023-03-11T12:08:40.046Z,4.80
2023-03-11T12:11:14.787Z,4.10
2023-03-11T12:14:12.336Z,3.90
2023-03-11T12:17:03.301Z,3.40
2023-03-11T12:19:58.058Z,4.00
2023-03-11T12:22:40.655Z,5.40
2023-03-11T12:25:29.757Z,6.30
2023-03-11T12:28:18.954Z,3.90
2023-03-11T12:30:52.674Z,7.40
2023-03-11T12:33:26.350Z,4.50
2023-03-11T12:35:57.029Z,4.10
2023-03-11T12:38:33.739Z,7.30
2023-03-11T12:41:13.761Z,4.90
2023-03-11T12:43:41.486Z,5.50
2023-03-11T12:46:14.438Z,7.20
2023-03-11T12:49:06.777Z,4.80
2023-03-11T12:51:34.644Z,4.50
2023-03-11T12:54:34.084Z,4.40
2023-03-11T12:57:17.147Z,5.20
2023-03-11T13:00:12.548Z,3.30
2023-03-11T13:03:02.578Z,5.40
2023-03-11T13:05:49.218Z,4.80
2023-03-11T13:08:21.656Z,6.60
2023-03-11T13:10:54.491Z,5.30
2023-03-11T13:13:25.138Z,6.40
2023-03-11T13:15:53.578Z,3.90
2023-03-11T13:18:30.510Z,4.90
2023-03-11T13:21:02.981Z,4.20
2023-03-11T13:23:40.721Z,3.90
2023-03-11T13:26:43.672Z,5.40
2023-03-11T13:29:29.430Z,6.20
2023-03-11T13:32:11.434Z,5.50
2023-03-11T13:34:58.443Z,5.50
2023-03-11T13:37:57.283Z,5.20
2023-03-11T13:40:34.046Z,6.10
2023-03-11T13:43:05.247Z,4.50
2023-03-11T13:45:35.807Z,4.20
2023-03-11T13:48:12.533Z,4.00
2023-03-11T13:50:48.859Z,6.90
2023-03-11T13:53:29.404Z,4.70
2023-03-11T13:55:57.910Z,2.50
2023-03-11T13:58:28.555Z,6.50
2023-03-11T14:00:59.318Z,5.30
2023-03-11T14:03:31.984Z,6.10
2023-03-11T14:06:07.101Z,3.90
2023-03-11T14:08:37.235Z,6.10
2023-03-11T14:11:10.856Z,6.80
2023-03-11T14:13:42.676Z,7.90
2023-03-11T14:16:31.407Z,5.00
2023-03-11T14:19:17.072Z,5.30
2023-03-11T14:21:46.975Z,6.30
2023-03-11T14:24:25.196Z,5.00
2023-03-11T14:26:56.982Z,6.50
2023-03-11T14:29:34.231Z,5.00
2023-03-11T14:32:17.902Z,5.50
2023-03-11T14:34:46.011Z,5.80
2023-03-11T14:37:34.270Z,5.40
2023-03-11T14:42:41.357Z,5.60
2023-03-11T14:45:14.176Z,4.80
2023-03-11T14:47:52.873Z,5.40
2023-03-11T14:50:24.443Z,3.30
2023-03-11T14:53:15.392Z,4.90
2023-03-11T14:55:54.552Z,4.00
2023-03-11T14:58:31.075Z,4.30
2023-03-11T15:01:28.945Z,8.60
2023-03-11T15:04:04.958Z,2.70
2023-03-11T15:09:23.182Z,4.40
2023-03-11T15:11:59.202Z,3.00
2023-03-11T15:17:35.235Z,2.30
2023-03-11T15:20:07.989Z,3.50
2023-03-11T15:22:39.782Z,3.80
2023-03-11T15:25:19.286Z,3.10
2023-03-11T15:27:47.146Z,5.50
2023-03-11T15:30:21.437Z,3.20
2023-03-11T15:32:50.050Z,3.80
2023-03-11T15:35:26.862Z,4.80
2023-03-11T15:38:21.274Z,3.70
2023-03-11T15:41:01.191Z,3.60
2023-03-11T15:43:32.731Z,5.60
2023-03-11T15:46:03.082Z,3.70
2023-03-11T15:48:31.385Z,7.00
2023-03-11T15:51:00.758Z,3.80
2023-03-11T15:53:30.378Z,5.40
2023-03-11T15:56:08.276Z,3.30
2023-03-11T15:58:38.143Z,2.60
2023-03-11T16:01:06.060Z,3.10
2023-03-11T16:03:33.831Z,3.80
2023-03-11T16:06:01.558Z,2.70
2023-03-11T16:08:29.257Z,2.50
2023-03-11T16:10:58.048Z,4.00
2023-03-11T16:13:25.934Z,3.80
2023-03-11T16:15:53.689Z,2.70
2023-03-11T16:18:21.420Z,3.40
2023-03-11T16:20:52.546Z,6.20
2023-03-11T16:23:22.136Z,1.90
2023-03-11T16:25:50.518Z,3.70
2023-03-11T16:28:18.845Z,3.50
2023-03-11T16:30:49.532Z,4.10
2023-03-11T16:33:17.378Z,3.40
2023-03-11T16:35:45.848Z,2.60
2023-03-11T16:38:14.286Z,7.20
2023-03-11T16:40:42.275Z,3.40
2023-03-11T16:43:13.634Z,2.60
2023-03-11T16:45:41.532Z,6.10
2023-03-11T16:48:09.410Z,2.90
2023-03-11T16:50:37.769Z,4.30
2023-03-11T16:53:05.700Z,2.80
2023-03-11T16:55:33.455Z,3.40
2023-03-11T16:58:01.387Z,2.30
2023-03-11T17:00:29.526Z,3.60
2023-03-11T17:02:57.358Z,3.40
2023-03-11T17:05:25.357Z,2.30
2023-03-11T17:07:57.152Z,4.80
2023-03-11T17:10:25.046Z,2.20
2023-03-11T17:12:52.767Z,5.00
2023-03-11T17:15:20.775Z,3.40
2023-03-11T17:17:48.534Z,4.90
2023-03-11T17:20:16.495Z,2.60
2023-03-11T17:22:44.449Z,4.80
2023-03-11T17:25:12.409Z,3.30
2023-03-11T17:27:40.214Z,4.80
2023-03-11T17:30:08.656Z,4.80
2023-03-11T17:32:36.434Z,4.10
2023-03-11T17:35:05.140Z,4.10
2023-03-11T17:37:33.293Z,3.40
2023-03-11T17:40:01.018Z,2.80
2023-03-11T17:42:28.746Z,5.60
2023-03-11T17:44:57.076Z,4.20
2023-03-11T17:47:27.812Z,3.70
2023-03-11T17:49:55.630Z,6.70
2023-03-11T17:52:23.504Z,4.20
2023-03-11T17:54:53.456Z,5.70
2023-03-11T17:57:21.331Z,2.30
2023-03-11T17:59:52.743Z,4.70
2023-03-11T18:02:21.130Z,2.50
2023-03-11T18:04:53.854Z,5.80
2023-03-11T18:07:23.784Z,4.70
2023-03-11T18:09:53.017Z,6.90
2023-03-11T18:12:21.931Z,4.70
2023-03-11T18:14:49.768Z,9.60
2023-03-11T18:17:18.645Z,11.40
2023-03-11T18:19:46.466Z,7.70
2023-03-11T18:22:15.514Z,5.40
2023-03-11T18:24:43.293Z,2.90
2023-03-11T18:27:11.013Z,2.70
2023-03-11T18:29:38.799Z,2.90
2023-03-11T18:32:06.566Z,3.40
2023-03-11T18:34:34.552Z,8.00
2023-03-11T18:37:02.535Z,5.00
2023-03-11T18:39:30.395Z,4.10
2023-03-11T18:41:58.222Z,3.80
2023-03-11T18:44:26.234Z,6.70
2023-03-11T18:46:54.069Z,2.90
2023-03-11T18:49:21.800Z,4.70
2023-03-11T18:51:49.551Z,3.10
2023-03-11T18:54:17.379Z,3.10
2023-03-11T18:56:45.311Z,2.60
2023-03-11T18:59:14.539Z,3.20
2023-03-11T19:01:42.524Z,5.60
2023-03-11T19:04:10.478Z,3.50
2023-03-11T19:06:38.465Z,4.20
2023-03-11T19:09:06.739Z,4.20
2023-03-11T19:11:34.542Z,4.90
2023-03-11T19:14:02.419Z,2.70
2023-03-11T19:16:30.316Z,4.50
2023-03-11T19:18:58.266Z,2.80
2023-03-11T19:21:26.216Z,3.80
2023-03-11T19:23:55.393Z,4.60
2023-03-11T19:26:41.493Z,6.20
2023-03-11T19:29:11.410Z,5.50
2023-03-11T19:31:39.369Z,5.00
2023-03-11T19:34:07.257Z,5.30
2023-03-11T19:36:35.241Z,8.60
2023-03-11T19:39:03.524Z,10.00
2023-03-11T19:41:31.311Z,8.70
2023-03-11T19:43:59.220Z,12.90
2023-03-11T19:46:27.636Z,7.60
2023-03-11T19:48:58.884Z,9.50
2023-03-11T19:51:32.917Z,5.50
2023-03-11T19:54:06.948Z,6.60
2023-03-11T19:56:34.733Z,7.60
2023-03-11T19:59:02.615Z,4.40
2023-03-11T20:01:31.728Z,11.50
2023-03-11T20:03:59.594Z,7.50
2023-03-11T20:06:27.437Z,6.70
2023-03-11T20:08:55.194Z,9.80
2023-03-11T20:11:23.052Z,3.20
2023-03-11T20:13:50.799Z,8.10
2023-03-11T20:16:19.497Z,12.90
2023-03-11T20:18:51.511Z,11.40
2023-03-11T20:21:19.521Z,9.20
2023-03-11T20:23:49.130Z,8.90
2023-03-11T20:26:18.573Z,9.50
2023-03-11T20:28:46.606Z,10.20
2023-03-11T20:31:17.660Z,5.80
2023-03-11T20:33:46.333Z,6.00
2023-03-11T20:36:18.850Z,9.30
2023-03-11T20:38:52.055Z,7.80
2023-03-11T20:41:20.282Z,8.10
2023-03-11T20:43:48.066Z,6.40
2023-03-11T20:46:15.911Z,5.60
2023-03-11T20:48:43.782Z,6.10
2023-03-11T20:51:19.482Z,4.30
2023-03-11T20:53:48.902Z,7.10
2023-03-11T20:56:19.931Z,5.30
2023-03-11T20:58:51.417Z,4.00
2023-03-11T21:01:21.080Z,4.60
2023-03-11T21:03:49.228Z,4.10
2023-03-11T21:06:23.267Z,6.80
2023-03-11T21:08:53.938Z,3.50
2023-03-11T21:11:22.939Z,2.70
2023-03-11T21:13:51.616Z,5.10
2023-03-11T21:16:20.555Z,1.90
2023-03-11T21:18:49.583Z,5.70
2023-03-11T21:21:18.604Z,3.20
2023-03-11T21:23:48.028Z,8.00
2023-03-11T21:26:17.324Z,8.00
2023-03-11T21:28:46.762Z,8.50
2023-03-11T21:33:55.947Z,2.60
2023-03-11T21:36:24.104Z,6.30
2023-03-11T21:38:52.075Z,8.40
2023-03-11T21:41:25.138Z,3.30
2023-03-11T21:43:55.085Z,6.50
2023-03-11T21:46:26.249Z,5.30
2023-03-11T21:48:54.465Z,4.80
2023-03-11T21:51:22.432Z,4.20
2023-03-11T21:53:50.646Z,4.80
2023-03-11T21:56:18.777Z,4.50
2023-03-11T21:58:46.866Z,3.70
2023-03-11T22:01:14.953Z,3.50
2023-03-11T22:03:43.969Z,4.00
2023-03-11T22:06:13.135Z,6.30
2023-03-11T22:08:42.448Z,6.00
2023-03-11T22:11:17.452Z,4.20
2023-03-11T22:13:46.945Z,5.30
2023-03-11T22:16:15.245Z,5.50
2023-03-11T22:18:43.771Z,3.30
2023-03-11T22:21:12.096Z,6.40
2023-03-11T22:23:39.936Z,4.20
2023-03-11T22:26:08.363Z,4.20
2023-03-11T22:28:36.830Z,6.00
2023-03-11T22:31:12.601Z,3.70
2023-03-11T22:33:40.784Z,5.00
2023-03-11T22:36:09.413Z,4.00
2023-03-11T22:38:38.486Z,6.00
2023-03-11T22:41:07.890Z,5.40
2023-03-11T22:43:36.825Z,4.00
2023-03-11T22:46:06.158Z,4.40
2023-03-11T22:48:34.528Z,3.80
2023-03-11T22:51:02.777Z,6.50
2023-03-11T22:53:30.564Z,3.70
2023-03-11T22:55:58.457Z,3.50
2023-03-11T22:58:26.196Z,5.00
2023-03-11T23:00:54.080Z,6.60
2023-03-11T23:03:21.824Z,4.00
2023-03-11T23:05:49.569Z,2.60
2023-03-11T23:08:17.867Z,3.90
2023-03-11T23:10:47.344Z,3.80
2023-03-11T23:13:15.891Z,2.10
2023-03-11T23:15:45.435Z,5.90
2023-03-11T23:18:15.507Z,6.60
2023-03-11T23:20:44.323Z,6.00
2023-03-11T23:23:12.901Z,5.30
2023-03-11T23:25:41.547Z,4.60
2023-03-11T23:28:09.321Z,4.60
2023-03-11T23:30:37.103Z,4.70
2023-03-11T23:33:04.998Z,6.90
2023-03-11T23:35:33.333Z,5.10
2023-03-11T23:38:01.203Z,4.00
2023-03-11T23:40:29.109Z,4.80
2023-03-11T23:42:57.000Z,4.90
2023-03-11T23:45:24.723Z,4.30
2023-03-11T23:47:52.769Z,7.10
2023-03-11T23:50:20.529Z,4.30
2023-03-11T23:52:48.259Z,5.50
2023-03-11T23:55:16.089Z,5.20
2023-03-11T23:57:43.840Z,2.70
